createdAt,value
2023-05-14T00:05:01.306Z,88.50
2023-05-14T00:10:04.448Z,88.93
2023-05-14T00:15:10.127Z,89.50
2023-05-14T00:20:13.610Z,89.46
2023-05-14T00:25:16.539Z,89.31
2023-05-14T00:30:20.827Z,89.42
2023-05-14T00:35:24.059Z,89.63
2023-05-14T00:40:28.423Z,90.04
2023-05-14T00:45:32.658Z,89.66
2023-05-14T00:50:36.492Z,90.14
2023-05-14T00:55:42.067Z,90.22
2023-05-14T01:00:46.895Z,90.91
2023-05-14T01:05:58.305Z,90.51
2023-05-14T01:11:08.401Z,90.77
2023-05-14T01:16:14.972Z,90.75
2023-05-14T01:21:35.870Z,91.15
2023-05-14T01:26:38.894Z,92.30
2023-05-14T01:31:45.337Z,92.82
2023-05-14T01:36:51.488Z,91.86
2023-05-14T01:41:55.410Z,92.07
2023-05-14T01:46:58.817Z,91.83
2023-05-14T01:52:03.048Z,91.47
2023-05-14T01:57:06.470Z,92.52
2023-05-14T02:02:09.456Z,92.75
2023-05-14T02:07:13.734Z,92.80
2023-05-14T02:12:16.670Z,92.34
2023-05-14T02:17:19.604Z,91.85
2023-05-14T02:22:23.884Z,91.65
2023-05-14T02:27:26.911Z,91.39
2023-05-14T02:32:29.905Z,91.18
2023-05-14T02:37:34.764Z,90.73
2023-05-14T02:42:37.740Z,90.48
2023-05-14T02:47:41.244Z,89.67
2023-05-14T02:52:45.681Z,89.68
2023-05-14T02:57:48.590Z,89.98
2023-05-14T03:02:51.792Z,90.29
2023-05-14T03:07:56.511Z,90.55
2023-05-14T03:12:59.383Z,90.46
2023-05-14T03:18:02.338Z,90.77
2023-05-14T03:23:06.853Z,91.04
2023-05-14T03:28:09.844Z,90.81
2023-05-14T03:33:12.763Z,91.34
2023-05-14T03:38:17.068Z,90.79
2023-05-14T03:43:22.924Z,90.34
2023-05-14T03:48:26.448Z,90.08
2023-05-14T03:53:30.862Z,89.96
2023-05-14T03:58:33.903Z,90.27
2023-05-14T04:03:36.942Z,89.47
2023-05-14T04:08:41.840Z,89.14
2023-05-14T04:13:44.861Z,85.43
2023-05-14T04:18:48.213Z,81.96
2023-05-14T04:23:52.728Z,77.96
2023-05-14T04:28:55.736Z,75.88
2023-05-14T04:33:58.628Z,72.88
2023-05-14T04:39:02.961Z,73.14
2023-05-14T04:44:06.797Z,77.56
2023-05-14T04:49:09.632Z,81.78
2023-05-14T04:54:13.953Z,85.75
2023-05-14T04:59:16.896Z,84.92
2023-05-14T05:04:20.128Z,81.79
2023-05-14T05:09:24.447Z,82.00
2023-05-14T05:14:27.299Z,80.60
2023-05-14T05:19:42.439Z,76.29
2023-05-14T05:24:49.772Z,75.14
2023-05-14T05:29:53.030Z,72.65
2023-05-14T05:34:55.949Z,69.18
2023-05-14T05:40:00.180Z,68.72
2023-05-14T05:45:03.059Z,68.63
2023-05-14T05:50:07.614Z,63.62
2023-05-14T05:55:12.156Z,62.35
2023-05-14T06:00:16.926Z,63.41
2023-05-14T06:05:20.033Z,62.94
2023-05-14T06:10:25.757Z,62.23
2023-05-14T06:15:28.847Z,65.97
2023-05-14T06:20:31.719Z,62.42
2023-05-14T06:25:35.992Z,62.05
2023-05-14T06:30:38.865Z,61.21
2023-05-14T06:35:41.795Z,61.44
2023-05-14T06:40:46.001Z,60.12
2023-05-14T06:45:50.067Z,58.25
2023-05-14T06:50:52.999Z,59.53
2023-05-14T06:55:57.373Z,63.20
2023-05-14T07:01:01.700Z,61.38
2023-05-14T07:06:04.842Z,58.79
2023-05-14T07:11:09.149Z,61.38
2023-05-14T07:16:12.049Z,63.67
2023-05-14T07:21:14.948Z,61.40
2023-05-14T07:26:19.277Z,58.63
2023-05-14T07:31:22.226Z,58.47
2023-05-14T07:36:25.153Z,57.55
2023-05-14T07:41:29.487Z,63.24
2023-05-14T07:46:32.392Z,60.65
2023-05-14T07:51:35.435Z,54.30
2023-05-14T07:56:39.765Z,53.07
2023-05-14T08:01:42.771Z,54.42
2023-05-14T08:06:45.741Z,53.03
2023-05-14T08:11:50.035Z,52.91
2023-05-14T08:16:53.116Z,52.89
2023-05-14T08:21:56.080Z,53.48
2023-05-14T08:27:00.564Z,53.72
2023-05-14T08:32:11.673Z,57.30
2023-05-14T08:37:22.587Z,51.64
2023-05-14T08:42:29.754Z,47.45
2023-05-14T08:47:32.780Z,46.99
2023-05-14T08:52:36.501Z,48.20
2023-05-14T08:57:41.452Z,46.48
2023-05-14T09:02:46.579Z,46.57
2023-05-14T09:07:49.669Z,44.84
2023-05-14T09:12:53.987Z,47.54
2023-05-14T09:17:57.758Z,50.29
2023-05-14T09:23:01.715Z,49.13
2023-05-14T09:28:10.128Z,50.62
2023-05-14T09:33:13.041Z,50.52
2023-05-14T09:38:16.225Z,51.32
2023-05-14T09:43:20.901Z,49.65
2023-05-14T09:48:24.466Z,50.53
2023-05-14T09:53:27.440Z,50.19
2023-05-14T09:58:31.698Z,50.08
2023-05-14T10:03:34.566Z,50.77
2023-05-14T10:08:44.810Z,50.51
2023-05-14T10:13:56.879Z,49.75
2023-05-14T10:19:06.075Z,50.74
2023-05-14T10:24:10.735Z,49.54
2023-05-14T10:29:15.186Z,49.41
2023-05-14T10:34:38.614Z,52.13
2023-05-14T10:39:43.762Z,53.21
2023-05-14T10:44:54.352Z,53.10
2023-05-14T10:49:59.781Z,53.40
2023-05-14T10:55:07.758Z,51.78
2023-05-14T11:00:14.498Z,54.75
2023-05-14T11:05:18.222Z,56.69
2023-05-14T11:10:23.249Z,56.06
2023-05-14T11:15:28.388Z,54.39
2023-05-14T11:20:32.755Z,56.44
2023-05-14T11:25:35.637Z,56.63
2023-05-14T11:30:39.882Z,53.42
2023-05-14T11:35:45.449Z,53.26
2023-05-14T11:40:54.110Z,50.42
2023-05-14T11:45:58.475Z,49.26
2023-05-14T11:51:01.421Z,47.75
2023-05-14T11:56:04.459Z,47.85
2023-05-14T12:01:14.270Z,45.08
2023-05-14T12:06:17.329Z,48.89
2023-05-14T12:11:22.431Z,47.95
2023-05-14T12:16:32.335Z,47.99
2023-05-14T12:21:36.632Z,45.45
2023-05-14T12:26:39.951Z,46.19
2023-05-14T12:31:49.036Z,46.51
2023-05-14T12:36:52.927Z,46.04
2023-05-14T12:41:55.809Z,46.46
2023-05-14T12:47:00.282Z,45.22
2023-05-14T12:52:17.284Z,45.34
2023-05-14T12:57:25.605Z,45.07
2023-05-14T13:02:29.856Z,43.37
2023-05-14T13:07:32.842Z,46.14
2023-05-14T13:12:35.824Z,45.76
2023-05-14T13:17:41.335Z,47.02
2023-05-14T13:22:44.279Z,43.91
2023-05-14T13:27:47.143Z,44.20
2023-05-14T13:32:51.597Z,44.61
2023-05-14T13:37:54.565Z,46.17
2023-05-14T13:42:57.646Z,45.77
2023-05-14T13:48:01.941Z,45.41
2023-05-14T13:53:04.829Z,46.95
2023-05-14T13:58:09.956Z,48.30
2023-05-14T14:03:14.273Z,49.18
2023-05-14T14:08:23.473Z,48.07
2023-05-14T14:13:27.809Z,52.48
2023-05-14T14:18:32.080Z,52.49
2023-05-14T14:23:34.994Z,52.66
2023-05-14T14:28:38.042Z,50.84
2023-05-14T14:33:42.354Z,49.49
2023-05-14T14:38:45.245Z,51.47
2023-05-14T14:43:48.164Z,49.46
2023-05-14T14:48:52.744Z,50.98
2023-05-14T14:53:55.584Z,50.05
2023-05-14T14:58:58.430Z,51.36
2023-05-14T15:04:02.743Z,51.06
2023-05-14T15:09:05.686Z,51.58
2023-05-14T15:14:08.614Z,51.66
2023-05-14T15:19:12.905Z,52.65
2023-05-14T15:24:16.014Z,52.67
2023-05-14T15:29:18.925Z,50.98
2023-05-14T15:34:23.209Z,50.80
2023-05-14T15:39:26.299Z,50.33
2023-05-14T15:44:29.815Z,51.95
2023-05-14T15:49:34.029Z,51.30
2023-05-14T15:54:37.015Z,51.40
2023-05-14T15:59:39.923Z,49.84
2023-05-14T16:04:45.164Z,50.97
2023-05-14T16:09:48.037Z,53.54
2023-05-14T16:14:50.989Z,53.02
2023-05-14T16:19:56.444Z,54.54
2023-05-14T16:25:01.795Z,54.82
2023-05-14T16:30:07.454Z,54.42
2023-05-14T16:35:12.004Z,53.64
2023-05-14T16:40:16.208Z,52.82
2023-05-14T16:45:19.215Z,54.41
2023-05-14T16:50:23.666Z,56.68
2023-05-14T16:55:27.178Z,56.84
2023-05-14T17:00:30.214Z,59.04
2023-05-14T17:05:35.985Z,63.23
2023-05-14T17:10:39.126Z,65.92
2023-05-14T17:15:42.541Z,65.61
2023-05-14T17:20:46.840Z,66.34
2023-05-14T17:25:49.827Z,65.47
2023-05-14T17:30:52.785Z,62.95
2023-05-14T17:35:57.072Z,62.91
2023-05-14T17:41:00.007Z,60.58
2023-05-14T17:46:03.616Z,61.71
2023-05-14T17:51:08.020Z,61.58
2023-05-14T17:56:11.362Z,60.82
2023-05-14T18:01:14.351Z,61.76
2023-05-14T18:06:18.851Z,61.88
2023-05-14T18:11:21.801Z,64.55
2023-05-14T18:16:24.776Z,62.69
2023-05-14T18:21:29.192Z,64.65
2023-05-14T18:26:34.201Z,63.84
2023-05-14T18:31:37.405Z,64.16
2023-05-14T18:36:41.844Z,64.65
2023-05-14T18:41:44.759Z,66.55
2023-05-14T18:46:47.687Z,66.38
2023-05-14T18:51:51.986Z,68.07
2023-05-14T18:56:54.933Z,70.54
2023-05-14T19:01:57.990Z,71.09
2023-05-14T19:07:02.570Z,71.15
2023-05-14T19:12:05.713Z,73.22
2023-05-14T19:17:08.686Z,73.84
2023-05-14T19:22:12.963Z,74.21
2023-05-14T19:27:17.330Z,76.48
2023-05-14T19:32:20.233Z,76.32
2023-05-14T19:37:24.866Z,75.58
2023-05-14T19:42:27.831Z,76.19
2023-05-14T19:47:30.908Z,77.22
2023-05-14T19:52:35.178Z,78.38
2023-05-14T19:57:39.171Z,77.91
2023-05-14T20:02:43.214Z,78.20
2023-05-14T20:07:48.893Z,78.84
2023-05-14T20:12:51.809Z,79.63
2023-05-14T20:17:54.928Z,80.37
2023-05-14T20:22:59.358Z,80.36
2023-05-14T20:28:02.364Z,80.22
2023-05-14T20:33:05.323Z,81.13
2023-05-14T20:38:09.706Z,80.83
2023-05-14T20:43:12.547Z,81.39
2023-05-14T20:48:17.532Z,82.09
2023-05-14T20:53:21.886Z,82.04
2023-05-14T20:58:24.792Z,82.32
2023-05-14T21:03:27.820Z,82.49
2023-05-14T21:08:32.972Z,82.06
2023-05-14T21:13:35.884Z,81.75
2023-05-14T21:18:38.809Z,81.87
2023-05-14T21:23:43.146Z,82.88
2023-05-14T21:28:45.997Z,82.46
2023-05-14T21:33:48.903Z,83.21
2023-05-14T21:38:53.922Z,83.26
2023-05-14T21:43:56.791Z,83.98
2023-05-14T21:49:00.070Z,83.64
2023-05-14T21:54:04.481Z,83.31
2023-05-14T21:59:07.442Z,81.81
2023-05-14T22:04:10.349Z,82.26
2023-05-14T22:09:14.676Z,83.00
2023-05-14T22:14:17.604Z,83.91
2023-05-14T22:19:20.501Z,84.04
2023-05-14T22:24:24.778Z,84.73
2023-05-14T22:29:27.666Z,85.73
2023-05-14T22:34:30.571Z,86.85
2023-05-14T22:39:34.828Z,88.57
2023-05-14T22:44:37.787Z,87.77
2023-05-14T22:49:42.335Z,86.61
2023-05-14T22:54:46.714Z,85.50
2023-05-14T22:59:49.726Z,85.76
2023-05-14T23:04:52.739Z,86.02
2023-05-14T23:09:57.119Z,86.41
2023-05-14T23:14:59.996Z,86.30
2023-05-14T23:20:05.162Z,86.23
2023-05-14T23:25:10.559Z,86.53
2023-05-14T23:30:14.175Z,87.14
2023-05-14T23:35:17.269Z,87.03
2023-05-14T23:40:21.480Z,86.17
2023-05-14T23:45:24.639Z,86.68
2023-05-14T23:50:28.162Z,87.11
2023-05-14T23:55:32.475Z,87.46
